sensor_id;sensor_type;location;lat;lon;timestamp;P1;durP1;ratioP1;P2;durP2;ratioP2
37647;SDS011;23490;53.656;10.076;2023-05-16T00:01:52;6.30;;;2.00;;
37647;SDS011;23490;53.656;10.076;2023-05-16T00:04:19;3.47;;;1.90;;
37647;SDS011;23490;53.656;10.076;2023-05-16T00:06:45;4.55;;;1.77;;
37647;SDS011;23490;53.656;10.076;2023-05-16T00:09:13;4.43;;;1.67;;
37647;SDS011;23490;53.656;10.076;2023-05-16T00:11:40;5.13;;;1.65;;
37647;SDS011;23490;53.656;10.076;2023-05-16T00:14:06;4.68;;;1.80;;
37647;SDS011;23490;53.656;10.076;2023-05-16T00:16:32;6.45;;;2.22;;
37647;SDS011;23490;53.656;10.076;2023-05-16T00:18:57;3.03;;;1.58;;
37647;SDS011;23490;53.656;10.076;2023-05-16T00:21:24;3.80;;;1.75;;
37647;SDS011;23490;53.656;10.076;2023-05-16T00:23:49;5.65;;;1.83;;
37647;SDS011;23490;53.656;10.076;2023-05-16T00:26:18;3.80;;;1.70;;
37647;SDS011;23490;53.656;10.076;2023-05-16T00:28:44;4.80;;;2.08;;
37647;SDS011;23490;53.656;10.076;2023-05-16T00:31:10;4.82;;;1.50;;
37647;SDS011;23490;53.656;10.076;2023-05-16T00:33:36;3.67;;;1.70;;
37647;SDS011;23490;53.656;10.076;2023-05-16T00:36:02;4.20;;;2.05;;
37647;SDS011;23490;53.656;10.076;2023-05-16T00:38:29;5.57;;;1.80;;
37647;SDS011;23490;53.656;10.076;2023-05-16T00:40:54;4.63;;;1.90;;
37647;SDS011;23490;53.656;10.076;2023-05-16T00:43:21;3.58;;;1.70;;
37647;SDS011;23490;53.656;10.076;2023-05-16T00:45:47;6.93;;;1.80;;
37647;SDS011;23490;53.656;10.076;2023-05-16T00:48:12;3.88;;;1.88;;
37647;SDS011;23490;53.656;10.076;2023-05-16T00:50:38;3.00;;;1.50;;
37647;SDS011;23490;53.656;10.076;2023-05-16T00:53:04;4.50;;;1.70;;
37647;SDS011;23490;53.656;10.076;2023-05-16T00:55:31;3.15;;;1.70;;
37647;SDS011;23490;53.656;10.076;2023-05-16T00:58:17;6.85;;;1.70;;
37647;SDS011;23490;53.656;10.076;2023-05-16T01:00:44;3.47;;;1.55;;
37647;SDS011;23490;53.656;10.076;2023-05-16T01:03:11;3.92;;;1.60;;
37647;SDS011;23490;53.656;10.076;2023-05-16T01:05:38;4.10;;;1.50;;
37647;SDS011;23490;53.656;10.076;2023-05-16T01:08:03;4.60;;;1.90;;
37647;SDS011;23490;53.656;10.076;2023-05-16T01:10:31;3.88;;;2.03;;
37647;SDS011;23490;53.656;10.076;2023-05-16T01:16:12;3.92;;;1.70;;
37647;SDS011;23490;53.656;10.076;2023-05-16T01:19:13;5.88;;;2.20;;
37647;SDS011;23490;53.656;10.076;2023-05-16T01:27:21;4.05;;;2.08;;
37647;SDS011;23490;53.656;10.076;2023-05-16T01:29:48;3.08;;;1.77;;
37647;SDS011;23490;53.656;10.076;2023-05-16T01:32:21;4.75;;;1.80;;
37647;SDS011;23490;53.656;10.076;2023-05-16T01:34:47;4.80;;;1.83;;
37647;SDS011;23490;53.656;10.076;2023-05-16T01:37:28;4.88;;;1.73;;
37647;SDS011;23490;53.656;10.076;2023-05-16T01:40:02;4.38;;;2.10;;
37647;SDS011;23490;53.656;10.076;2023-05-16T01:42:34;7.13;;;2.38;;
37647;SDS011;23490;53.656;10.076;2023-05-16T01:45:11;6.05;;;2.85;;
37647;SDS011;23490;53.656;10.076;2023-05-16T01:47:46;4.72;;;2.42;;
37647;SDS011;23490;53.656;10.076;2023-05-16T01:50:21;7.53;;;2.90;;
37647;SDS011;23490;53.656;10.076;2023-05-16T01:53:14;7.60;;;2.78;;
37647;SDS011;23490;53.656;10.076;2023-05-16T01:55:48;8.20;;;2.65;;
37647;SDS011;23490;53.656;10.076;2023-05-16T01:58:17;7.57;;;2.40;;
37647;SDS011;23490;53.656;10.076;2023-05-16T02:00:46;6.45;;;1.75;;
37647;SDS011;23490;53.656;10.076;2023-05-16T02:03:11;6.55;;;2.42;;
37647;SDS011;23490;53.656;10.076;2023-05-16T02:05:36;8.18;;;2.13;;
37647;SDS011;23490;53.656;10.076;2023-05-16T02:08:02;6.05;;;2.20;;
37647;SDS011;23490;53.656;10.076;2023-05-16T02:10:28;7.60;;;2.00;;
37647;SDS011;23490;53.656;10.076;2023-05-16T02:12:53;7.38;;;2.28;;
37647;SDS011;23490;53.656;10.076;2023-05-16T02:15:19;6.18;;;1.88;;
37647;SDS011;23490;53.656;10.076;2023-05-16T02:17:46;5.38;;;2.00;;
37647;SDS011;23490;53.656;10.076;2023-05-16T02:20:13;8.50;;;2.13;;
37647;SDS011;23490;53.656;10.076;2023-05-16T02:22:39;7.38;;;1.75;;
37647;SDS011;23490;53.656;10.076;2023-05-16T02:25:04;7.18;;;1.52;;
37647;SDS011;23490;53.656;10.076;2023-05-16T02:27:31;8.13;;;1.48;;
37647;SDS011;23490;53.656;10.076;2023-05-16T02:29:57;6.10;;;1.50;;
37647;SDS011;23490;53.656;10.076;2023-05-16T02:32:23;6.97;;;1.75;;
37647;SDS011;23490;53.656;10.076;2023-05-16T02:34:50;5.63;;;1.45;;
37647;SDS011;23490;53.656;10.076;2023-05-16T02:37:16;6.90;;;1.60;;
37647;SDS011;23490;53.656;10.076;2023-05-16T02:39:42;8.32;;;2.13;;
37647;SDS011;23490;53.656;10.076;2023-05-16T02:42:08;10.32;;;2.03;;
37647;SDS011;23490;53.656;10.076;2023-05-16T02:44:35;8.02;;;1.77;;
37647;SDS011;23490;53.656;10.076;2023-05-16T02:47:00;4.05;;;1.73;;
37647;SDS011;23490;53.656;10.076;2023-05-16T02:49:25;4.75;;;1.20;;
37647;SDS011;23490;53.656;10.076;2023-05-16T02:51:51;8.60;;;1.40;;
37647;SDS011;23490;53.656;10.076;2023-05-16T02:54:17;9.00;;;1.65;;
37647;SDS011;23490;53.656;10.076;2023-05-16T02:56:42;9.30;;;1.83;;
37647;SDS011;23490;53.656;10.076;2023-05-16T02:59:10;5.18;;;1.40;;
37647;SDS011;23490;53.656;10.076;2023-05-16T03:01:37;12.82;;;2.35;;
37647;SDS011;23490;53.656;10.076;2023-05-16T03:04:02;10.07;;;1.83;;
37647;SDS011;23490;53.656;10.076;2023-05-16T03:06:28;10.30;;;2.35;;
37647;SDS011;23490;53.656;10.076;2023-05-16T03:08:54;8.50;;;1.98;;
37647;SDS011;23490;53.656;10.076;2023-05-16T03:11:19;4.70;;;1.17;;
37647;SDS011;23490;53.656;10.076;2023-05-16T03:13:46;7.38;;;2.03;;
37647;SDS011;23490;53.656;10.076;2023-05-16T03:16:13;6.80;;;2.03;;
37647;SDS011;23490;53.656;10.076;2023-05-16T03:18:39;8.73;;;3.08;;
37647;SDS011;23490;53.656;10.076;2023-05-16T03:21:06;7.53;;;1.77;;
37647;SDS011;23490;53.656;10.076;2023-05-16T03:23:32;10.77;;;2.60;;
37647;SDS011;23490;53.656;10.076;2023-05-16T03:25:58;8.93;;;1.95;;
37647;SDS011;23490;53.656;10.076;2023-05-16T03:28:23;7.40;;;2.17;;
37647;SDS011;23490;53.656;10.076;2023-05-16T03:30:49;10.88;;;3.08;;
37647;SDS011;23490;53.656;10.076;2023-05-16T03:33:15;12.95;;;2.22;;
37647;SDS011;23490;53.656;10.076;2023-05-16T03:35:41;10.32;;;2.15;;
37647;SDS011;23490;53.656;10.076;2023-05-16T03:38:07;10.35;;;2.53;;
37647;SDS011;23490;53.656;10.076;2023-05-16T03:40:33;6.03;;;1.83;;
37647;SDS011;23490;53.656;10.076;2023-05-16T03:42:59;13.30;;;2.72;;
37647;SDS011;23490;53.656;10.076;2023-05-16T03:45:25;14.23;;;2.53;;
37647;SDS011;23490;53.656;10.076;2023-05-16T03:47:51;8.93;;;1.77;;
37647;SDS011;23490;53.656;10.076;2023-05-16T03:50:18;14.48;;;2.28;;
37647;SDS011;23490;53.656;10.076;2023-05-16T03:52:43;11.27;;;2.17;;
37647;SDS011;23490;53.656;10.076;2023-05-16T03:55:09;8.15;;;2.08;;
37647;SDS011;23490;53.656;10.076;2023-05-16T03:57:35;12.30;;;2.83;;
37647;SDS011;23490;53.656;10.076;2023-05-16T04:00:06;9.93;;;1.55;;
37647;SDS011;23490;53.656;10.076;2023-05-16T04:02:36;12.98;;;2.67;;
37647;SDS011;23490;53.656;10.076;2023-05-16T04:05:02;10.07;;;2.53;;
37647;SDS011;23490;53.656;10.076;2023-05-16T04:07:28;8.90;;;1.92;;
37647;SDS011;23490;53.656;10.076;2023-05-16T04:09:53;11.95;;;2.28;;
37647;SDS011;23490;53.656;10.076;2023-05-16T04:12:20;10.65;;;2.08;;
37647;SDS011;23490;53.656;10.076;2023-05-16T04:14:45;10.00;;;2.72;;
37647;SDS011;23490;53.656;10.076;2023-05-16T04:17:11;11.23;;;2.35;;
37647;SDS011;23490;53.656;10.076;2023-05-16T04:19:37;7.32;;;2.10;;
37647;SDS011;23490;53.656;10.076;2023-05-16T04:22:02;11.45;;;2.00;;
37647;SDS011;23490;53.656;10.076;2023-05-16T04:24:27;9.50;;;2.38;;
37647;SDS011;23490;53.656;10.076;2023-05-16T04:26:53;9.63;;;1.75;;
37647;SDS011;23490;53.656;10.076;2023-05-16T04:29:19;15.00;;;2.33;;
37647;SDS011;23490;53.656;10.076;2023-05-16T04:31:45;11.10;;;1.67;;
37647;SDS011;23490;53.656;10.076;2023-05-16T04:34:10;14.10;;;2.53;;
37647;SDS011;23490;53.656;10.076;2023-05-16T04:36:37;13.30;;;2.53;;
37647;SDS011;23490;53.656;10.076;2023-05-16T04:39:02;20.77;;;2.53;;
37647;SDS011;23490;53.656;10.076;2023-05-16T04:41:28;10.88;;;2.17;;
37647;SDS011;23490;53.656;10.076;2023-05-16T04:43:54;9.13;;;1.77;;
37647;SDS011;23490;53.656;10.076;2023-05-16T04:46:19;9.52;;;2.08;;
37647;SDS011;23490;53.656;10.076;2023-05-16T04:48:45;8.63;;;2.10;;
37647;SDS011;23490;53.656;10.076;2023-05-16T04:51:11;9.52;;;2.33;;
37647;SDS011;23490;53.656;10.076;2023-05-16T04:53:36;13.13;;;2.75;;
37647;SDS011;23490;53.656;10.076;2023-05-16T04:56:02;9.55;;;2.13;;
37647;SDS011;23490;53.656;10.076;2023-05-16T04:58:29;8.32;;;1.58;;
37647;SDS011;23490;53.656;10.076;2023-05-16T05:00:55;9.25;;;1.10;;
37647;SDS011;23490;53.656;10.076;2023-05-16T05:03:20;10.95;;;2.40;;
37647;SDS011;23490;53.656;10.076;2023-05-16T05:05:48;9.35;;;1.73;;
37647;SDS011;23490;53.656;10.076;2023-05-16T05:08:13;12.75;;;2.35;;
37647;SDS011;23490;53.656;10.076;2023-05-16T05:10:40;11.38;;;1.65;;
37647;SDS011;23490;53.656;10.076;2023-05-16T05:13:05;11.35;;;2.05;;
37647;SDS011;23490;53.656;10.076;2023-05-16T05:15:31;9.73;;;1.92;;
37647;SDS011;23490;53.656;10.076;2023-05-16T05:18:00;11.05;;;2.70;;
37647;SDS011;23490;53.656;10.076;2023-05-16T05:20:25;9.52;;;1.90;;
37647;SDS011;23490;53.656;10.076;2023-05-16T05:22:52;12.07;;;1.70;;
37647;SDS011;23490;53.656;10.076;2023-05-16T05:25:17;9.30;;;1.63;;
37647;SDS011;23490;53.656;10.076;2023-05-16T05:27:42;9.55;;;1.52;;
37647;SDS011;23490;53.656;10.076;2023-05-16T05:30:08;9.30;;;1.38;;
37647;SDS011;23490;53.656;10.076;2023-05-16T05:32:35;13.10;;;2.65;;
37647;SDS011;23490;53.656;10.076;2023-05-16T05:35:01;10.00;;;2.17;;
37647;SDS011;23490;53.656;10.076;2023-05-16T05:37:28;6.68;;;1.50;;
37647;SDS011;23490;53.656;10.076;2023-05-16T05:39:54;12.48;;;1.80;;
37647;SDS011;23490;53.656;10.076;2023-05-16T05:42:20;10.15;;;1.83;;
37647;SDS011;23490;53.656;10.076;2023-05-16T05:44:45;8.80;;;2.22;;
37647;SDS011;23490;53.656;10.076;2023-05-16T05:47:10;8.95;;;2.15;;
37647;SDS011;23490;53.656;10.076;2023-05-16T05:49:36;7.50;;;1.85;;
37647;SDS011;23490;53.656;10.076;2023-05-16T05:52:01;10.88;;;2.05;;
37647;SDS011;23490;53.656;10.076;2023-05-16T05:54:26;11.48;;;2.25;;
37647;SDS011;23490;53.656;10.076;2023-05-16T05:56:55;12.98;;;1.73;;
37647;SDS011;23490;53.656;10.076;2023-05-16T05:59:21;10.27;;;2.22;;
37647;SDS011;23490;53.656;10.076;2023-05-16T06:01:47;11.50;;;1.67;;
37647;SDS011;23490;53.656;10.076;2023-05-16T06:04:16;12.65;;;2.53;;
37647;SDS011;23490;53.656;10.076;2023-05-16T06:06:42;8.93;;;2.10;;
37647;SDS011;23490;53.656;10.076;2023-05-16T06:09:08;7.25;;;1.20;;
37647;SDS011;23490;53.656;10.076;2023-05-16T06:11:33;8.57;;;1.83;;
37647;SDS011;23490;53.656;10.076;2023-05-16T06:13:58;7.93;;;2.30;;
37647;SDS011;23490;53.656;10.076;2023-05-16T06:16:24;6.75;;;1.45;;
37647;SDS011;23490;53.656;10.076;2023-05-16T06:18:50;8.55;;;2.10;;
37647;SDS011;23490;53.656;10.076;2023-05-16T06:21:16;10.45;;;1.67;;
37647;SDS011;23490;53.656;10.076;2023-05-16T06:23:41;8.70;;;1.40;;
37647;SDS011;23490;53.656;10.076;2023-05-16T06:26:06;11.45;;;1.27;;
37647;SDS011;23490;53.656;10.076;2023-05-16T06:28:33;6.80;;;1.17;;
37647;SDS011;23490;53.656;10.076;2023-05-16T06:30:59;5.78;;;1.58;;
37647;SDS011;23490;53.656;10.076;2023-05-16T06:33:25;7.07;;;1.00;;
37647;SDS011;23490;53.656;10.076;2023-05-16T06:35:50;14.57;;;2.90;;
37647;SDS011;23490;53.656;10.076;2023-05-16T06:38:16;12.48;;;2.10;;
37647;SDS011;23490;53.656;10.076;2023-05-16T06:40:43;6.68;;;1.23;;
37647;SDS011;23490;53.656;10.076;2023-05-16T06:43:08;6.38;;;1.80;;
37647;SDS011;23490;53.656;10.076;2023-05-16T06:45:34;9.02;;;1.55;;
37647;SDS011;23490;53.656;10.076;2023-05-16T06:47:59;7.70;;;1.65;;
37647;SDS011;23490;53.656;10.076;2023-05-16T06:50:25;6.47;;;1.55;;
37647;SDS011;23490;53.656;10.076;2023-05-16T06:52:51;5.97;;;1.35;;
37647;SDS011;23490;53.656;10.076;2023-05-16T06:55:16;9.55;;;1.77;;
37647;SDS011;23490;53.656;10.076;2023-05-16T06:57:41;10.02;;;1.27;;
37647;SDS011;23490;53.656;10.076;2023-05-16T07:00:07;9.25;;;2.38;;
37647;SDS011;23490;53.656;10.076;2023-05-16T07:02:33;7.90;;;1.20;;
37647;SDS011;23490;53.656;10.076;2023-05-16T07:04:58;6.90;;;1.77;;
37647;SDS011;23490;53.656;10.076;2023-05-16T07:07:23;8.55;;;2.03;;
37647;SDS011;23490;53.656;10.076;2023-05-16T07:09:49;6.80;;;1.83;;
37647;SDS011;23490;53.656;10.076;2023-05-16T07:12:15;8.00;;;1.63;;
37647;SDS011;23490;53.656;10.076;2023-05-16T07:14:42;9.63;;;2.05;;
37647;SDS011;23490;53.656;10.076;2023-05-16T07:17:08;11.77;;;1.33;;
37647;SDS011;23490;53.656;10.076;2023-05-16T07:19:34;8.68;;;1.73;;
37647;SDS011;23490;53.656;10.076;2023-05-16T07:22:01;8.70;;;1.85;;
37647;SDS011;23490;53.656;10.076;2023-05-16T07:24:27;5.55;;;1.88;;
37647;SDS011;23490;53.656;10.076;2023-05-16T07:26:53;3.90;;;0.77;;
37647;SDS011;23490;53.656;10.076;2023-05-16T07:29:18;9.85;;;1.67;;
37647;SDS011;23490;53.656;10.076;2023-05-16T07:31:44;4.97;;;1.90;;
37647;SDS011;23490;53.656;10.076;2023-05-16T07:34:10;8.63;;;1.20;;
37647;SDS011;23490;53.656;10.076;2023-05-16T07:36:36;4.38;;;1.08;;
37647;SDS011;23490;53.656;10.076;2023-05-16T07:39:02;3.60;;;1.50;;
37647;SDS011;23490;53.656;10.076;2023-05-16T07:41:28;6.47;;;1.65;;
37647;SDS011;23490;53.656;10.076;2023-05-16T07:43:54;4.88;;;1.45;;
37647;SDS011;23490;53.656;10.076;2023-05-16T07:46:20;5.28;;;1.40;;
37647;SDS011;23490;53.656;10.076;2023-05-16T07:48:49;7.70;;;1.48;;
37647;SDS011;23490;53.656;10.076;2023-05-16T07:51:14;10.57;;;1.35;;
37647;SDS011;23490;53.656;10.076;2023-05-16T07:53:40;6.28;;;1.00;;
37647;SDS011;23490;53.656;10.076;2023-05-16T07:56:06;6.88;;;1.13;;
37647;SDS011;23490;53.656;10.076;2023-05-16T07:58:33;6.45;;;0.75;;
37647;SDS011;23490;53.656;10.076;2023-05-16T08:01:00;6.05;;;1.33;;
37647;SDS011;23490;53.656;10.076;2023-05-16T08:03:25;4.53;;;1.00;;
37647;SDS011;23490;53.656;10.076;2023-05-16T08:05:51;4.47;;;0.93;;
37647;SDS011;23490;53.656;10.076;2023-05-16T08:08:16;6.18;;;1.08;;
37647;SDS011;23490;53.656;10.076;2023-05-16T08:10:42;4.97;;;1.05;;
37647;SDS011;23490;53.656;10.076;2023-05-16T08:13:09;4.95;;;1.05;;
37647;SDS011;23490;53.656;10.076;2023-05-16T08:15:34;3.13;;;0.90;;
37647;SDS011;23490;53.656;10.076;2023-05-16T08:18:01;5.45;;;1.00;;
37647;SDS011;23490;53.656;10.076;2023-05-16T08:20:26;10.00;;;1.20;;
37647;SDS011;23490;53.656;10.076;2023-05-16T08:22:52;5.63;;;1.15;;
37647;SDS011;23490;53.656;10.076;2023-05-16T08:25:18;4.53;;;1.20;;
37647;SDS011;23490;53.656;10.076;2023-05-16T08:27:45;6.28;;;1.00;;
37647;SDS011;23490;53.656;10.076;2023-05-16T08:30:11;5.85;;;1.15;;
37647;SDS011;23490;53.656;10.076;2023-05-16T08:32:37;5.25;;;1.25;;
37647;SDS011;23490;53.656;10.076;2023-05-16T08:35:02;6.72;;;0.95;;
37647;SDS011;23490;53.656;10.076;2023-05-16T08:37:29;7.28;;;1.95;;
37647;SDS011;23490;53.656;10.076;2023-05-16T08:39:55;5.25;;;1.15;;
37647;SDS011;23490;53.656;10.076;2023-05-16T08:42:22;6.18;;;0.90;;
37647;SDS011;23490;53.656;10.076;2023-05-16T08:44:47;6.45;;;1.60;;
37647;SDS011;23490;53.656;10.076;2023-05-16T08:47:19;5.68;;;1.20;;
37647;SDS011;23490;53.656;10.076;2023-05-16T08:49:50;3.50;;;0.88;;
37647;SDS011;23490;53.656;10.076;2023-05-16T08:52:19;5.15;;;1.08;;
37647;SDS011;23490;53.656;10.076;2023-05-16T08:54:46;4.47;;;1.23;;
37647;SDS011;23490;53.656;10.076;2023-05-16T08:57:13;2.33;;;0.70;;
37647;SDS011;23490;53.656;10.076;2023-05-16T08:59:42;6.10;;;0.93;;
37647;SDS011;23490;53.656;10.076;2023-05-16T09:02:08;5.70;;;1.20;;
37647;SDS011;23490;53.656;10.076;2023-05-16T09:04:34;6.47;;;1.67;;
37647;SDS011;23490;53.656;10.076;2023-05-16T09:07:01;3.05;;;0.88;;
37647;SDS011;23490;53.656;10.076;2023-05-16T09:09:26;4.25;;;0.90;;
37647;SDS011;23490;53.656;10.076;2023-05-16T09:11:51;4.20;;;1.10;;
37647;SDS011;23490;53.656;10.076;2023-05-16T09:14:17;5.05;;;1.35;;
37647;SDS011;23490;53.656;10.076;2023-05-16T09:16:43;3.95;;;0.77;;
37647;SDS011;23490;53.656;10.076;2023-05-16T09:19:11;2.65;;;0.60;;
37647;SDS011;23490;53.656;10.076;2023-05-16T09:21:38;3.03;;;0.75;;
37647;SDS011;23490;53.656;10.076;2023-05-16T09:24:07;3.83;;;0.75;;
37647;SDS011;23490;53.656;10.076;2023-05-16T09:26:35;2.80;;;1.00;;
37647;SDS011;23490;53.656;10.076;2023-05-16T09:29:09;3.72;;;0.82;;
37647;SDS011;23490;53.656;10.076;2023-05-16T09:31:35;4.93;;;0.90;;
37647;SDS011;23490;53.656;10.076;2023-05-16T09:34:03;5.90;;;1.02;;
37647;SDS011;23490;53.656;10.076;2023-05-16T09:36:31;3.38;;;1.10;;
37647;SDS011;23490;53.656;10.076;2023-05-16T09:38:57;4.47;;;1.13;;
37647;SDS011;23490;53.656;10.076;2023-05-16T09:41:23;4.30;;;1.25;;
37647;SDS011;23490;53.656;10.076;2023-05-16T09:43:48;2.78;;;0.77;;
37647;SDS011;23490;53.656;10.076;2023-05-16T09:46:14;7.60;;;1.30;;
37647;SDS011;23490;53.656;10.076;2023-05-16T09:48:40;8.43;;;1.13;;
37647;SDS011;23490;53.656;10.076;2023-05-16T09:51:08;4.87;;;1.30;;
37647;SDS011;23490;53.656;10.076;2023-05-16T09:53:36;6.93;;;1.30;;
37647;SDS011;23490;53.656;10.076;2023-05-16T09:56:03;4.90;;;1.27;;
37647;SDS011;23490;53.656;10.076;2023-05-16T09:58:39;7.05;;;1.02;;
37647;SDS011;23490;53.656;10.076;2023-05-16T10:01:06;4.78;;;1.00;;
37647;SDS011;23490;53.656;10.076;2023-05-16T10:03:33;4.93;;;0.90;;
37647;SDS011;23490;53.656;10.076;2023-05-16T10:06:00;4.95;;;1.58;;
37647;SDS011;23490;53.656;10.076;2023-05-16T10:08:26;5.47;;;1.70;;
37647;SDS011;23490;53.656;10.076;2023-05-16T10:10:53;9.32;;;1.42;;
37647;SDS011;23490;53.656;10.076;2023-05-16T10:13:21;7.65;;;1.50;;
37647;SDS011;23490;53.656;10.076;2023-05-16T10:15:49;5.20;;;1.02;;
37647;SDS011;23490;53.656;10.076;2023-05-16T10:18:19;4.32;;;1.10;;
37647;SDS011;23490;53.656;10.076;2023-05-16T10:20:46;3.33;;;0.88;;
37647;SDS011;23490;53.656;10.076;2023-05-16T10:23:16;3.92;;;0.90;;
37647;SDS011;23490;53.656;10.076;2023-05-16T10:25:43;6.22;;;1.25;;
37647;SDS011;23490;53.656;10.076;2023-05-16T10:28:10;5.90;;;1.38;;
37647;SDS011;23490;53.656;10.076;2023-05-16T10:30:39;8.75;;;1.77;;
37647;SDS011;23490;53.656;10.076;2023-05-16T10:33:08;4.85;;;1.20;;
37647;SDS011;23490;53.656;10.076;2023-05-16T10:35:36;9.98;;;2.03;;
37647;SDS011;23490;53.656;10.076;2023-05-16T10:38:02;5.75;;;1.25;;
37647;SDS011;23490;53.656;10.076;2023-05-16T10:40:29;2.78;;;1.00;;
37647;SDS011;23490;53.656;10.076;2023-05-16T10:42:58;7.45;;;1.42;;
37647;SDS011;23490;53.656;10.076;2023-05-16T10:45:25;5.80;;;1.00;;
37647;SDS011;23490;53.656;10.076;2023-05-16T10:47:54;6.03;;;0.93;;
37647;SDS011;23490;53.656;10.076;2023-05-16T10:50:34;5.65;;;1.20;;
37647;SDS011;23490;53.656;10.076;2023-05-16T10:53:17;3.50;;;1.25;;
37647;SDS011;23490;53.656;10.076;2023-05-16T10:58:40;4.78;;;1.10;;
37647;SDS011;23490;53.656;10.076;2023-05-16T11:01:16;6.88;;;1.58;;
37647;SDS011;23490;53.656;10.076;2023-05-16T11:06:32;6.88;;;1.58;;
37647;SDS011;23490;53.656;10.076;2023-05-16T11:11:39;6.05;;;1.20;;
37647;SDS011;23490;53.656;10.076;2023-05-16T11:16:52;12.30;;;1.65;;
37647;SDS011;23490;53.656;10.076;2023-05-16T11:20:06;5.47;;;1.40;;
37647;SDS011;23490;53.656;10.076;2023-05-16T11:22:20;7.40;;;1.58;;
37647;SDS011;23490;53.656;10.076;2023-05-16T11:25:00;5.45;;;1.38;;
37647;SDS011;23490;53.656;10.076;2023-05-16T11:32:39;6.22;;;1.25;;
37647;SDS011;23490;53.656;10.076;2023-05-16T11:35:06;3.35;;;0.95;;
37647;SDS011;23490;53.656;10.076;2023-05-16T11:37:34;3.58;;;0.90;;
37647;SDS011;23490;53.656;10.076;2023-05-16T11:40:09;6.20;;;1.10;;
37647;SDS011;23490;53.656;10.076;2023-05-16T11:42:41;4.25;;;1.10;;
37647;SDS011;23490;53.656;10.076;2023-05-16T11:45:11;4.35;;;0.93;;
37647;SDS011;23490;53.656;10.076;2023-05-16T11:47:39;2.83;;;0.55;;
37647;SDS011;23490;53.656;10.076;2023-05-16T11:50:12;2.50;;;1.05;;
37647;SDS011;23490;53.656;10.076;2023-05-16T11:52:44;3.65;;;1.15;;
37647;SDS011;23490;53.656;10.076;2023-05-16T11:57:57;3.88;;;0.70;;
37647;SDS011;23490;53.656;10.076;2023-05-16T12:00:24;3.22;;;0.70;;
37647;SDS011;23490;53.656;10.076;2023-05-16T12:02:51;2.95;;;0.90;;
37647;SDS011;23490;53.656;10.076;2023-05-16T12:05:31;2.80;;;1.05;;
37647;SDS011;23490;53.656;10.076;2023-05-16T12:07:57;6.60;;;1.25;;
37647;SDS011;23490;53.656;10.076;2023-05-16T12:10:26;4.07;;;0.70;;
37647;SDS011;23490;53.656;10.076;2023-05-16T12:12:52;1.85;;;0.50;;
37647;SDS011;23490;53.656;10.076;2023-05-16T12:15:18;4.03;;;0.70;;
37647;SDS011;23490;53.656;10.076;2023-05-16T12:17:48;4.90;;;0.90;;
37647;SDS011;23490;53.656;10.076;2023-05-16T13:26:36;18.77;;;1.83;;
37647;SDS011;23490;53.656;10.076;2023-05-16T13:29:01;16.42;;;2.20;;
37647;SDS011;23490;53.656;10.076;2023-05-16T13:31:26;1.33;;;0.60;;
37647;SDS011;23490;53.656;10.076;2023-05-16T13:33:52;2.50;;;0.60;;
37647;SDS011;23490;53.656;10.076;2023-05-16T13:36:17;2.50;;;0.43;;
37647;SDS011;23490;53.656;10.076;2023-05-16T13:38:43;5.90;;;0.60;;
37647;SDS011;23490;53.656;10.076;2023-05-16T13:41:08;8.02;;;1.23;;
37647;SDS011;23490;53.656;10.076;2023-05-16T13:43:33;2.08;;;0.70;;
37647;SDS011;23490;53.656;10.076;2023-05-16T13:45:59;1.58;;;0.55;;
37647;SDS011;23490;53.656;10.076;2023-05-16T13:48:24;3.30;;;0.70;;
37647;SDS011;23490;53.656;10.076;2023-05-16T13:50:50;6.22;;;0.90;;
37647;SDS011;23490;53.656;10.076;2023-05-16T13:53:17;2.25;;;0.57;;
37647;SDS011;23490;53.656;10.076;2023-05-16T13:55:42;3.22;;;0.80;;
37647;SDS011;23490;53.656;10.076;2023-05-16T13:58:08;3.35;;;1.02;;
37647;SDS011;23490;53.656;10.076;2023-05-16T14:00:33;4.85;;;0.70;;
37647;SDS011;23490;53.656;10.076;2023-05-16T14:02:58;2.92;;;0.75;;
37647;SDS011;23490;53.656;10.076;2023-05-16T14:05:24;4.20;;;0.77;;
37647;SDS011;23490;53.656;10.076;2023-05-16T14:07:50;2.17;;;0.65;;
37647;SDS011;23490;53.656;10.076;2023-05-16T14:10:15;1.90;;;0.63;;
37647;SDS011;23490;53.656;10.076;2023-05-16T14:12:41;2.78;;;0.75;;
37647;SDS011;23490;53.656;10.076;2023-05-16T14:15:06;2.53;;;1.00;;
37647;SDS011;23490;53.656;10.076;2023-05-16T14:17:32;4.35;;;1.00;;
37647;SDS011;23490;53.656;10.076;2023-05-16T14:19:57;5.05;;;1.10;;
37647;SDS011;23490;53.656;10.076;2023-05-16T14:22:23;3.28;;;0.85;;
37647;SDS011;23490;53.656;10.076;2023-05-16T14:24:48;3.88;;;1.40;;
37647;SDS011;23490;53.656;10.076;2023-05-16T14:27:13;2.53;;;0.98;;
37647;SDS011;23490;53.656;10.076;2023-05-16T14:29:40;8.88;;;1.30;;
37647;SDS011;23490;53.656;10.076;2023-05-16T14:32:06;6.63;;;1.33;;
37647;SDS011;23490;53.656;10.076;2023-05-16T14:34:32;4.88;;;0.98;;
37647;SDS011;23490;53.656;10.076;2023-05-16T14:36:57;6.00;;;1.30;;
37647;SDS011;23490;53.656;10.076;2023-05-16T14:39:23;5.45;;;1.45;;
37647;SDS011;23490;53.656;10.076;2023-05-16T14:41:48;6.53;;;1.35;;
37647;SDS011;23490;53.656;10.076;2023-05-16T14:44:13;4.40;;;1.08;;
37647;SDS011;23490;53.656;10.076;2023-05-16T14:46:39;5.20;;;0.95;;
37647;SDS011;23490;53.656;10.076;2023-05-16T14:49:04;3.75;;;0.80;;
37647;SDS011;23490;53.656;10.076;2023-05-16T14:51:29;1.98;;;0.68;;
37647;SDS011;23490;53.656;10.076;2023-05-16T14:53:56;2.47;;;0.95;;
37647;SDS011;23490;53.656;10.076;2023-05-16T14:56:21;3.45;;;0.93;;
37647;SDS011;23490;53.656;10.076;2023-05-16T14:58:47;3.70;;;1.00;;
37647;SDS011;23490;53.656;10.076;2023-05-16T15:01:12;4.43;;;1.08;;
37647;SDS011;23490;53.656;10.076;2023-05-16T15:03:39;3.10;;;0.98;;
37647;SDS011;23490;53.656;10.076;2023-05-16T15:06:04;3.67;;;0.90;;
37647;SDS011;23490;53.656;10.076;2023-05-16T15:08:32;2.67;;;0.68;;
37647;SDS011;23490;53.656;10.076;2023-05-16T15:10:58;6.70;;;1.40;;
37647;SDS011;23490;53.656;10.076;2023-05-16T15:13:24;4.82;;;1.27;;
37647;SDS011;23490;53.656;10.076;2023-05-16T15:15:50;4.35;;;1.30;;
37647;SDS011;23490;53.656;10.076;2023-05-16T15:18:15;4.95;;;0.98;;
37647;SDS011;23490;53.656;10.076;2023-05-16T15:20:40;6.78;;;1.70;;
37647;SDS011;23490;53.656;10.076;2023-05-16T15:23:06;8.00;;;1.40;;
37647;SDS011;23490;53.656;10.076;2023-05-16T15:25:32;5.32;;;1.40;;
37647;SDS011;23490;53.656;10.076;2023-05-16T15:27:57;5.65;;;1.65;;
37647;SDS011;23490;53.656;10.076;2023-05-16T15:30:23;7.88;;;1.52;;
37647;SDS011;23490;53.656;10.076;2023-05-16T15:32:48;9.25;;;1.77;;
37647;SDS011;23490;53.656;10.076;2023-05-16T15:35:14;9.88;;;1.63;;
37647;SDS011;23490;53.656;10.076;2023-05-16T15:37:39;6.35;;;1.42;;
37647;SDS011;23490;53.656;10.076;2023-05-16T15:40:05;7.35;;;1.33;;
37647;SDS011;23490;53.656;10.076;2023-05-16T15:42:32;7.60;;;1.70;;
37647;SDS011;23490;53.656;10.076;2023-05-16T15:44:57;6.38;;;1.55;;
37647;SDS011;23490;53.656;10.076;2023-05-16T15:47:22;5.90;;;1.42;;
37647;SDS011;23490;53.656;10.076;2023-05-16T15:49:48;8.07;;;1.73;;
37647;SDS011;23490;53.656;10.076;2023-05-16T15:52:13;5.05;;;1.98;;
37647;SDS011;23490;53.656;10.076;2023-05-16T15:54:38;4.80;;;1.42;;
37647;SDS011;23490;53.656;10.076;2023-05-16T15:57:04;10.73;;;2.05;;
37647;SDS011;23490;53.656;10.076;2023-05-16T15:59:29;4.60;;;1.83;;
37647;SDS011;23490;53.656;10.076;2023-05-16T16:01:55;9.07;;;1.85;;
37647;SDS011;23490;53.656;10.076;2023-05-16T16:04:20;8.23;;;2.10;;
37647;SDS011;23490;53.656;10.076;2023-05-16T16:06:49;6.50;;;1.70;;